Time;durP1;ratioP1;P1;durP2;ratioP2;P2;SDS_P1;SDS_P2;PMS_P1;PMS_P2;Temp;Humidity;BMP_temperature;BMP_pressure;BME280_temperature;BME280_humidity;BME280_pressure;Samples;Min_cycle;Max_cycle;Signal;HPM_P1;HPM_P2
2023/08/20 00:01:08;;;;;;;3.78;0.93;;;;;;;;;;5027529;28;20477;-66
2023/08/20 00:03:36;;;;;;;11.40;1.55;;;;;;;;;;5029686;28;20046;-66
2023/08/20 00:06:04;;;;;;;5.07;1.33;;;;;;;;;;5024649;28;20542;-66
2023/08/20 00:08:31;;;;;;;4.13;0.90;;;;;;;;;;5027752;28;20064;-67
2023/08/20 00:10:59;;;;;;;4.28;1.13;;;;;;;;;;5029022;28;20049;-66
2023/08/20 00:13:26;;;;;;;5.25;1.50;;;;;;;;;;5027526;28;20041;-66
2023/08/20 00:15:53;;;;;;;4.60;1.08;;;;;;;;;;5026936;28;20382;-66
2023/08/20 00:18:22;;;;;;;4.68;1.17;;;;;;;;;;5028991;28;20049;-66
2023/08/20 00:20:50;;;;;;;3.42;1.17;;;;;;;;;;5023187;28;21230;-66
2023/08/20 00:23:18;;;;;;;8.80;1.42;;;;;;;;;;5026323;28;20041;-66
2023/08/20 00:25:45;;;;;;;10.32;1.33;;;;;;;;;;5029201;28;20050;-67
2023/08/20 00:28:13;;;;;;;7.88;1.30;;;;;;;;;;5024764;28;20047;-67
2023/08/20 00:30:40;;;;;;;7.28;1.33;;;;;;;;;;5026114;28;20049;-66
2023/08/20 00:33:07;;;;;;;5.40;1.30;;;;;;;;;;5027049;28;20041;-66
2023/08/20 00:35:36;;;;;;;4.90;1.38;;;;;;;;;;5027533;28;20065;-66
2023/08/20 00:38:03;;;;;;;6.70;1.55;;;;;;;;;;5020596;28;20049;-66
2023/08/20 00:40:31;;;;;;;4.72;1.75;;;;;;;;;;5027688;28;20118;-66
2023/08/20 00:42:59;;;;;;;5.95;1.58;;;;;;;;;;5029300;28;20056;-66
2023/08/20 00:45:26;;;;;;;5.78;1.33;;;;;;;;;;5019004;28;20051;-67
2023/08/20 00:47:54;;;;;;;5.13;1.83;;;;;;;;;;5029552;28;20081;-66
2023/08/20 00:50:21;;;;;;;7.38;1.80;;;;;;;;;;5026544;28;20053;-66
2023/08/20 00:52:50;;;;;;;11.30;1.50;;;;;;;;;;5025780;28;20141;-66
2023/08/20 00:55:17;;;;;;;9.43;1.90;;;;;;;;;;5024420;28;20129;-66
2023/08/20 00:57:45;;;;;;;7.82;1.80;;;;;;;;;;5028292;28;20520;-66
2023/08/20 01:00:12;;;;;;;8.20;1.80;;;;;;;;;;5028771;28;20038;-66
2023/08/20 01:02:40;;;;;;;5.85;1.42;;;;;;;;;;5025739;28;20055;-66
2023/08/20 01:05:08;;;;;;;12.65;2.00;;;;;;;;;;5029375;28;20077;-66
2023/08/20 01:07:41;;;;;;;6.07;1.80;;;;;;;;;;5029195;28;20045;-66
2023/08/20 01:10:13;;;;;;;4.30;1.60;;;;;;;;;;5017128;28;20052;-66
2023/08/20 01:12:40;;;;;;;4.88;1.88;;;;;;;;;;5025614;28;20047;-66
2023/08/20 01:15:13;;;;;;;8.40;2.15;;;;;;;;;;5028286;28;20049;-66
2023/08/20 01:17:40;;;;;;;7.13;1.58;;;;;;;;;;5028086;28;20049;-66
2023/08/20 01:20:08;;;;;;;9.05;2.00;;;;;;;;;;5028495;28;20054;-66
2023/08/20 01:22:56;;;;;;;7.47;2.00;;;;;;;;;;5028549;28;20065;-66
2023/08/20 01:25:31;;;;;;;6.43;1.75;;;;;;;;;;5016303;28;20049;-66
2023/08/20 01:28:03;;;;;;;6.07;1.70;;;;;;;;;;5028975;28;20061;-66
2023/08/20 01:30:31;;;;;;;9.05;1.90;;;;;;;;;;5026858;28;20604;-66
2023/08/20 01:32:59;;;;;;;4.22;1.70;;;;;;;;;;5032969;28;20393;-66
2023/08/20 01:35:27;;;;;;;10.90;2.05;;;;;;;;;;5030467;28;20048;-66
2023/08/20 01:37:54;;;;;;;7.90;1.95;;;;;;;;;;5033403;28;20103;-66
2023/08/20 01:40:21;;;;;;;5.10;2.20;;;;;;;;;;5033501;28;20730;-66
2023/08/20 01:42:49;;;;;;;9.07;2.05;;;;;;;;;;5033133;28;20045;-66
2023/08/20 01:45:16;;;;;;;6.88;2.13;;;;;;;;;;5028934;28;20053;-66
2023/08/20 01:47:45;;;;;;;7.90;2.20;;;;;;;;;;5033234;28;20055;-66
2023/08/20 01:50:12;;;;;;;7.03;2.35;;;;;;;;;;5030283;28;20049;-66
2023/08/20 01:52:39;;;;;;;4.72;1.88;;;;;;;;;;5033504;28;20049;-66
2023/08/20 01:55:06;;;;;;;8.48;2.10;;;;;;;;;;5031675;28;20050;-66
2023/08/20 01:57:34;;;;;;;6.30;1.75;;;;;;;;;;5029685;28;20056;-66
2023/08/20 02:00:01;;;;;;;7.93;2.13;;;;;;;;;;5030996;28;20397;-66
2023/08/20 02:02:28;;;;;;;5.18;2.40;;;;;;;;;;5030684;28;20050;-66
2023/08/20 02:04:57;;;;;;;10.10;2.30;;;;;;;;;;5029148;28;20045;-66
2023/08/20 02:07:24;;;;;;;9.48;2.22;;;;;;;;;;5033498;28;20057;-66
2023/08/20 02:09:51;;;;;;;12.23;2.13;;;;;;;;;;5026339;28;20072;-66
2023/08/20 02:12:19;;;;;;;7.28;2.30;;;;;;;;;;5029947;28;20053;-66
2023/08/20 02:14:46;;;;;;;8.10;2.25;;;;;;;;;;5030320;28;20053;-66
2023/08/20 02:17:14;;;;;;;6.18;2.10;;;;;;;;;;5032225;28;20049;-66
2023/08/20 02:19:41;;;;;;;7.45;2.35;;;;;;;;;;5031299;28;20103;-66
2023/08/20 02:22:09;;;;;;;8.00;1.85;;;;;;;;;;5031532;28;20053;-66
2023/08/20 02:24:37;;;;;;;10.00;2.20;;;;;;;;;;5031655;28;20052;-66
2023/08/20 02:27:04;;;;;;;6.45;2.00;;;;;;;;;;5029154;28;20053;-66
2023/08/20 02:29:31;;;;;;;7.15;1.90;;;;;;;;;;5028160;28;20488;-66
2023/08/20 02:31:58;;;;;;;5.13;2.25;;;;;;;;;;5025677;28;20057;-66
2023/08/20 02:34:26;;;;;;;3.75;1.80;;;;;;;;;;5031014;28;20041;-66
2023/08/20 02:36:53;;;;;;;6.45;2.00;;;;;;;;;;5032457;28;20045;-66
2023/08/20 02:39:24;;;;;;;7.20;1.73;;;;;;;;;;5030196;28;20052;-66
2023/08/20 02:41:51;;;;;;;7.25;1.70;;;;;;;;;;5029595;28;20053;-66
2023/08/20 02:44:18;;;;;;;8.90;2.03;;;;;;;;;;5028284;28;20057;-66
2023/08/20 02:46:45;;;;;;;6.53;1.67;;;;;;;;;;5031261;28;20045;-66
2023/08/20 02:49:14;;;;;;;10.70;1.98;;;;;;;;;;5032846;28;20052;-66
2023/08/20 02:51:42;;;;;;;7.13;1.98;;;;;;;;;;5031082;28;20251;-66
2023/08/20 02:54:09;;;;;;;4.82;1.60;;;;;;;;;;5031306;28;20053;-66
2023/08/20 02:56:38;;;;;;;7.00;1.67;;;;;;;;;;5025274;28;20053;-66
2023/08/20 02:59:05;;;;;;;7.00;2.30;;;;;;;;;;5029932;28;20045;-66
2023/08/20 03:01:32;;;;;;;6.88;1.60;;;;;;;;;;5032300;28;20049;-66
2023/08/20 03:04:00;;;;;;;10.35;1.83;;;;;;;;;;5027200;28;20060;-66
2023/08/20 03:06:27;;;;;;;6.80;2.13;;;;;;;;;;5032724;28;20386;-66
2023/08/20 03:08:54;;;;;;;6.38;1.60;;;;;;;;;;5031825;28;20057;-66
2023/08/20 03:11:21;;;;;;;5.75;1.90;;;;;;;;;;5030246;28;20497;-66
2023/08/20 03:13:50;;;;;;;8.18;2.03;;;;;;;;;;5031732;28;20049;-66
2023/08/20 03:16:17;;;;;;;7.57;1.70;;;;;;;;;;5029914;28;20052;-66
2023/08/20 03:18:44;;;;;;;4.35;2.10;;;;;;;;;;5029659;28;20396;-66
2023/08/20 03:21:11;;;;;;;6.72;1.90;;;;;;;;;;5031999;28;20535;-66
2023/08/20 03:23:39;;;;;;;10.43;2.05;;;;;;;;;;5024234;28;20054;-65
2023/08/20 03:26:06;;;;;;;5.72;2.00;;;;;;;;;;5032093;28;20115;-66
2023/08/20 03:28:33;;;;;;;9.98;2.13;;;;;;;;;;5029413;28;20071;-66
2023/08/20 03:31:02;;;;;;;7.75;2.40;;;;;;;;;;5028831;28;20042;-66
2023/08/20 03:33:29;;;;;;;8.85;2.22;;;;;;;;;;5031895;28;20046;-66
2023/08/20 03:35:57;;;;;;;9.82;2.30;;;;;;;;;;5025634;28;20451;-66
2023/08/20 03:38:24;;;;;;;9.82;2.83;;;;;;;;;;5029529;28;20053;-66
2023/08/20 03:40:51;;;;;;;6.88;2.42;;;;;;;;;;5030625;28;20053;-66
2023/08/20 03:43:18;;;;;;;9.45;2.63;;;;;;;;;;5023768;28;20053;-66
2023/08/20 03:45:46;;;;;;;6.22;2.10;;;;;;;;;;5031403;28;20140;-66
2023/08/20 03:48:14;;;;;;;9.38;2.90;;;;;;;;;;5026933;28;21261;-66
2023/08/20 03:50:41;;;;;;;8.38;2.80;;;;;;;;;;5027684;28;20053;-66
2023/08/20 03:53:09;;;;;;;12.68;2.88;;;;;;;;;;5029727;28;20061;-65
2023/08/20 03:55:36;;;;;;;8.80;2.72;;;;;;;;;;5030563;28;20062;-66
2023/08/20 03:58:03;;;;;;;9.63;2.60;;;;;;;;;;5027726;28;20042;-66
2023/08/20 04:00:31;;;;;;;11.35;3.53;;;;;;;;;;5030406;28;20489;-66
2023/08/20 04:02:58;;;;;;;8.32;3.08;;;;;;;;;;5029568;28;20055;-66
2023/08/20 04:05:26;;;;;;;6.47;2.42;;;;;;;;;;5028452;28;20049;-66
2023/08/20 04:07:54;;;;;;;11.82;2.70;;;;;;;;;;5029951;28;20439;-66
2023/08/20 04:10:21;;;;;;;6.65;3.03;;;;;;;;;;5027348;28;20053;-66
2023/08/20 04:12:48;;;;;;;7.45;2.75;;;;;;;;;;5027707;28;20053;-66
2023/08/20 04:15:15;;;;;;;7.30;2.78;;;;;;;;;;5025412;28;20049;-66
2023/08/20 04:17:43;;;;;;;8.02;2.78;;;;;;;;;;5028034;28;20060;-66
2023/08/20 04:20:10;;;;;;;7.25;2.70;;;;;;;;;;5027669;28;20049;-66
2023/08/20 04:22:40;;;;;;;8.57;3.08;;;;;;;;;;5025844;28;20049;-66
2023/08/20 04:25:07;;;;;;;8.30;3.17;;;;;;;;;;5025894;28;20052;-65
2023/08/20 04:27:34;;;;;;;8.05;2.80;;;;;;;;;;5025139;28;20049;-66
2023/08/20 04:30:02;;;;;;;8.63;3.20;;;;;;;;;;5024989;28;20550;-65
2023/08/20 04:32:29;;;;;;;13.82;3.25;;;;;;;;;;5029704;28;20053;-66
2023/08/20 04:34:56;;;;;;;6.97;2.67;;;;;;;;;;5028164;28;20057;-66
2023/08/20 04:37:23;;;;;;;8.57;2.85;;;;;;;;;;5028557;28;20404;-66
2023/08/20 04:39:52;;;;;;;8.55;3.05;;;;;;;;;;5028927;28;20048;-66
2023/08/20 04:42:19;;;;;;;10.90;3.30;;;;;;;;;;5027748;28;20048;-66
2023/08/20 04:44:48;;;;;;;7.78;2.97;;;;;;;;;;5022506;28;20049;-66
2023/08/20 04:47:15;;;;;;;10.00;2.92;;;;;;;;;;5027670;28;20124;-66
2023/08/20 04:49:42;;;;;;;10.25;3.00;;;;;;;;;;5029841;28;20045;-66
2023/08/20 04:52:09;;;;;;;9.32;3.45;;;;;;;;;;5028424;28;20049;-65
2023/08/20 04:54:37;;;;;;;9.30;3.25;;;;;;;;;;5029407;28;20053;-66
2023/08/20 04:57:06;;;;;;;10.10;3.10;;;;;;;;;;5028021;28;20046;-66
2023/08/20 04:59:33;;;;;;;14.20;3.00;;;;;;;;;;5030034;28;20056;-66
2023/08/20 05:02:00;;;;;;;8.10;2.92;;;;;;;;;;5023592;28;20053;-66
2023/08/20 05:04:27;;;;;;;10.43;3.00;;;;;;;;;;5025704;28;20056;-67
2023/08/20 05:06:55;;;;;;;8.32;2.78;;;;;;;;;;5027761;28;20042;-66
2023/08/20 05:09:22;;;;;;;7.22;2.70;;;;;;;;;;5023282;28;20045;-66
2023/08/20 05:11:49;;;;;;;10.43;2.90;;;;;;;;;;5025769;28;20045;-66
2023/08/20 05:14:18;;;;;;;10.75;3.00;;;;;;;;;;5023793;28;20140;-66
2023/08/20 05:16:45;;;;;;;13.23;3.25;;;;;;;;;;5023067;28;20056;-65
2023/08/20 05:19:12;;;;;;;10.32;3.13;;;;;;;;;;5026025;28;20136;-65
2023/08/20 05:21:40;;;;;;;8.68;2.90;;;;;;;;;;5024933;28;20148;-66
2023/08/20 05:24:07;;;;;;;9.38;3.05;;;;;;;;;;5028682;28;20049;-66
2023/08/20 05:26:35;;;;;;;7.90;2.97;;;;;;;;;;5020178;28;20416;-66
2023/08/20 05:29:02;;;;;;;6.78;2.63;;;;;;;;;;5026087;28;20076;-66
2023/08/20 05:31:31;;;;;;;13.30;2.90;;;;;;;;;;5027762;28;20508;-66
2023/08/20 05:33:58;;;;;;;7.90;2.97;;;;;;;;;;5020219;28;20481;-66
2023/08/20 05:36:25;;;;;;;9.63;3.08;;;;;;;;;;5025643;28;20049;-66
2023/08/20 05:38:53;;;;;;;7.65;2.80;;;;;;;;;;5025302;28;20462;-66
2023/08/20 05:41:20;;;;;;;9.48;3.05;;;;;;;;;;5028684;28;20041;-65
2023/08/20 05:43:47;;;;;;;7.03;2.75;;;;;;;;;;5028485;28;20037;-66
2023/08/20 05:46:14;;;;;;;7.75;2.83;;;;;;;;;;5021728;28;20046;-66
2023/08/20 05:48:43;;;;;;;9.43;2.60;;;;;;;;;;5028577;28;20592;-66
2023/08/20 05:51:10;;;;;;;5.57;2.60;;;;;;;;;;5026908;28;20489;-66
2023/08/20 05:53:37;;;;;;;11.77;2.50;;;;;;;;;;5028068;28;20049;-66
2023/08/20 05:56:05;;;;;;;10.68;2.70;;;;;;;;;;5029540;28;20053;-66
2023/08/20 05:58:32;;;;;;;15.10;2.70;;;;;;;;;;5028148;28;20060;-65
2023/08/20 06:00:59;;;;;;;9.63;2.83;;;;;;;;;;5025508;28;20489;-66
2023/08/20 06:03:26;;;;;;;14.10;3.20;;;;;;;;;;5021800;28;20049;-66
2023/08/20 06:05:55;;;;;;;9.32;2.50;;;;;;;;;;5028244;28;20390;-66
2023/08/20 06:08:22;;;;;;;7.88;2.30;;;;;;;;;;5025411;28;20048;-66
2023/08/20 06:10:49;;;;;;;10.40;2.60;;;;;;;;;;5027805;28;20052;-66
2023/08/20 06:13:17;;;;;;;11.25;2.50;;;;;;;;;;5033322;28;20053;-65
2023/08/20 06:15:44;;;;;;;5.72;2.15;;;;;;;;;;5028306;28;20056;-66
2023/08/20 06:18:11;;;;;;;11.05;2.50;;;;;;;;;;5025703;28;20053;-66
2023/08/20 06:20:38;;;;;;;12.10;2.83;;;;;;;;;;5031645;28;20429;-66
2023/08/20 06:23:07;;;;;;;7.45;2.90;;;;;;;;;;5031596;28;20465;-66
2023/08/20 06:25:34;;;;;;;7.10;2.70;;;;;;;;;;5031505;28;20051;-66
2023/08/20 06:28:01;;;;;;;11.98;2.80;;;;;;;;;;5025114;28;20048;-66
2023/08/20 06:30:29;;;;;;;6.40;2.45;;;;;;;;;;5027513;28;20060;-65
2023/08/20 06:32:56;;;;;;;12.48;3.05;;;;;;;;;;5031794;28;20049;-66
2023/08/20 06:35:23;;;;;;;15.60;3.30;;;;;;;;;;5027732;28;20048;-66
2023/08/20 06:37:50;;;;;;;10.52;3.13;;;;;;;;;;5028616;28;20386;-66
2023/08/20 06:40:19;;;;;;;7.93;3.10;;;;;;;;;;5029829;28;20052;-66
2023/08/20 06:42:46;;;;;;;12.77;3.17;;;;;;;;;;5030913;28;20052;-66
2023/08/20 06:45:13;;;;;;;11.35;2.90;;;;;;;;;;5031196;28;20050;-66
2023/08/20 06:47:41;;;;;;;13.15;3.20;;;;;;;;;;5029357;28;20049;-66
2023/08/20 06:50:08;;;;;;;9.15;3.03;;;;;;;;;;5030399;28;20140;-66
2023/08/20 06:52:35;;;;;;;14.05;2.85;;;;;;;;;;5028761;28;20056;-66
2023/08/20 06:55:04;;;;;;;12.90;2.70;;;;;;;;;;5030575;28;20072;-66
2023/08/20 06:57:32;;;;;;;10.23;2.90;;;;;;;;;;5026733;28;20052;-66
2023/08/20 06:59:59;;;;;;;12.77;3.50;;;;;;;;;;5028773;28;20046;-66
2023/08/20 07:02:27;;;;;;;11.43;2.97;;;;;;;;;;5028120;28;20048;-65
2023/08/20 07:04:54;;;;;;;10.57;2.97;;;;;;;;;;5029016;28;20053;-66
2023/08/20 07:07:22;;;;;;;9.70;2.88;;;;;;;;;;5027165;28;20053;-66
2023/08/20 07:09:49;;;;;;;15.25;3.30;;;;;;;;;;5027654;28;20057;-66
2023/08/20 07:12:16;;;;;;;10.73;2.88;;;;;;;;;;5029363;28;20050;-65
2023/08/20 07:14:45;;;;;;;10.25;2.83;;;;;;;;;;5026333;28;20398;-66
2023/08/20 07:17:12;;;;;;;9.25;2.53;;;;;;;;;;5029184;28;20164;-66
2023/08/20 07:19:39;;;;;;;17.98;2.97;;;;;;;;;;5028516;28;20049;-66
2023/08/20 07:22:06;;;;;;;16.83;3.22;;;;;;;;;;5028416;28;20049;-66
2023/08/20 07:24:35;;;;;;;10.95;2.90;;;;;;;;;;5026431;28;20059;-66
2023/08/20 07:27:03;;;;;;;8.23;2.70;;;;;;;;;;5024954;28;20056;-67
2023/08/20 07:29:31;;;;;;;7.28;2.30;;;;;;;;;;5025493;28;20049;-66
2023/08/20 07:32:03;;;;;;;9.93;2.90;;;;;;;;;;5027168;28;20052;-66
2023/08/20 07:34:30;;;;;;;11.48;2.63;;;;;;;;;;5031563;28;20083;-66
2023/08/20 07:36:57;;;;;;;12.88;2.58;;;;;;;;;;5030769;28;20064;-66
2023/08/20 07:39:25;;;;;;;11.13;2.97;;;;;;;;;;5021641;28;20058;-65
2023/08/20 07:41:52;;;;;;;14.45;2.75;;;;;;;;;;5029893;28;20045;-66
2023/08/20 07:44:19;;;;;;;11.93;2.75;;;;;;;;;;5030272;28;20508;-66
2023/08/20 07:46:46;;;;;;;9.13;2.60;;;;;;;;;;5022634;28;20046;-66
2023/08/20 07:49:15;;;;;;;12.25;2.50;;;;;;;;;;5025873;28;20354;-66
2023/08/20 07:51:42;;;;;;;9.45;2.40;;;;;;;;;;5029270;28;20071;-66
2023/08/20 07:54:09;;;;;;;8.77;2.58;;;;;;;;;;5030365;28;20102;-66
2023/08/20 07:56:37;;;;;;;7.75;2.03;;;;;;;;;;5028324;28;20133;-66
2023/08/20 07:59:04;;;;;;;11.68;1.73;;;;;;;;;;5031831;28;20088;-66
2023/08/20 08:01:31;;;;;;;9.25;2.08;;;;;;;;;;5030350;28;20049;-66
2023/08/20 08:03:58;;;;;;;7.70;1.70;;;;;;;;;;5031512;28;20489;-67
2023/08/20 08:06:27;;;;;;;10.23;1.73;;;;;;;;;;5025909;28;20045;-66
2023/08/20 08:08:54;;;;;;;12.45;1.60;;;;;;;;;;5030875;28;20061;-66
2023/08/20 08:11:22;;;;;;;6.65;1.63;;;;;;;;;;5018824;28;20037;-66
2023/08/20 08:13:49;;;;;;;10.75;1.80;;;;;;;;;;5029980;28;20049;-67
2023/08/20 08:16:16;;;;;;;7.40;1.23;;;;;;;;;;5020869;28;20519;-66
2023/08/20 08:18:44;;;;;;;9.15;1.48;;;;;;;;;;5022054;28;20060;-66
2023/08/20 08:21:11;;;;;;;6.28;2.00;;;;;;;;;;5028622;28;20041;-66
2023/08/20 08:23:39;;;;;;;6.93;1.42;;;;;;;;;;5029656;28;20384;-66
2023/08/20 08:26:07;;;;;;;8.25;1.52;;;;;;;;;;5026962;28;20046;-69
2023/08/20 08:28:34;;;;;;;9.27;1.60;;;;;;;;;;5026617;28;20056;-66
2023/08/20 08:31:01;;;;;;;9.77;2.00;;;;;;;;;;5029257;28;20041;-67
2023/08/20 08:33:28;;;;;;;8.80;1.38;;;;;;;;;;5031024;28;20057;-66
2023/08/20 08:35:56;;;;;;;9.90;1.70;;;;;;;;;;5028863;28;20397;-67
2023/08/20 08:38:23;;;;;;;8.60;1.17;;;;;;;;;;5027288;28;20046;-66
2023/08/20 08:40:52;;;;;;;10.80;1.90;;;;;;;;;;5028981;28;20493;-66
2023/08/20 08:43:19;;;;;;;11.85;2.15;;;;;;;;;;5029121;28;20060;-66
2023/08/20 08:45:48;;;;;;;9.23;1.70;;;;;;;;;;5030275;28;20069;-66
2023/08/20 08:48:15;;;;;;;9.13;1.48;;;;;;;;;;5026664;28;20104;-66
2023/08/20 08:50:43;;;;;;;10.70;1.70;;;;;;;;;;5023924;28;20496;-66
2023/08/20 08:53:10;;;;;;;8.07;1.40;;;;;;;;;;5028639;28;20045;-66
2023/08/20 08:55:38;;;;;;;7.38;1.20;;;;;;;;;;5029855;28;20068;-66
2023/08/20 08:58:07;;;;;;;9.52;1.40;;;;;;;;;;5023809;28;20056;-66
2023/08/20 09:00:34;;;;;;;5.45;1.17;;;;;;;;;;5026032;28;20069;-67
2023/08/20 09:03:01;;;;;;;6.50;1.20;;;;;;;;;;5025958;28;20064;-66
2023/08/20 09:05:28;;;;;;;7.85;1.15;;;;;;;;;;5029244;28;20061;-66
2023/08/20 09:07:57;;;;;;;6.15;1.70;;;;;;;;;;5028886;28;20052;-66
2023/08/20 09:10:27;;;;;;;7.65;1.25;;;;;;;;;;5029103;28;20050;-66
2023/08/20 09:12:56;;;;;;;5.68;1.30;;;;;;;;;;5029326;28;20497;-66
2023/08/20 09:15:31;;;;;;;7.30;1.70;;;;;;;;;;5030223;28;20053;-66
2023/08/20 09:17:59;;;;;;;5.13;1.30;;;;;;;;;;5016481;28;20101;-66
2023/08/20 09:20:35;;;;;;;6.55;1.35;;;;;;;;;;5027094;28;20061;-66
2023/08/20 09:23:02;;;;;;;7.38;1.40;;;;;;;;;;5027090;28;20049;-66
2023/08/20 09:25:29;;;;;;;11.18;1.85;;;;;;;;;;5028915;28;20409;-66
2023/08/20 09:27:57;;;;;;;10.18;1.48;;;;;;;;;;5025544;28;20073;-66
2023/08/20 09:30:25;;;;;;;8.45;1.25;;;;;;;;;;5017749;28;20517;-66
2023/08/20 09:33:05;;;;;;;6.88;1.50;;;;;;;;;;5024273;28;20084;-67
2023/08/20 09:35:33;;;;;;;8.02;1.27;;;;;;;;;;5026903;28;20049;-66
2023/08/20 09:38:00;;;;;;;6.22;1.35;;;;;;;;;;5026871;28;20133;-66
2023/08/20 09:40:28;;;;;;;9.95;1.20;;;;;;;;;;5030017;28;20088;-67
2023/08/20 09:42:57;;;;;;;9.25;1.60;;;;;;;;;;5028470;28;20069;-66
2023/08/20 09:45:26;;;;;;;8.50;1.90;;;;;;;;;;5027786;28;20550;-66
2023/08/20 09:47:56;;;;;;;6.95;1.38;;;;;;;;;;5024942;28;20057;-66
2023/08/20 09:50:24;;;;;;;9.38;1.45;;;;;;;;;;5029229;28;20041;-66
2023/08/20 09:52:57;;;;;;;6.38;1.40;;;;;;;;;;5027695;28;20413;-67
2023/08/20 09:55:25;;;;;;;8.80;1.52;;;;;;;;;;5032581;28;20409;-66
2023/08/20 09:57:53;;;;;;;8.82;1.35;;;;;;;;;;5032138;28;20053;-66
2023/08/20 10:00:22;;;;;;;7.40;1.20;;;;;;;;;;5033193;28;20049;-66
2023/08/20 10:02:51;;;;;;;5.88;1.23;;;;;;;;;;5023984;28;20054;-67
2023/08/20 10:05:20;;;;;;;9.50;1.65;;;;;;;;;;5029028;28;20052;-67
2023/08/20 10:07:48;;;;;;;3.78;1.20;;;;;;;;;;5027801;28;20055;-66
2023/08/20 10:10:16;;;;;;;5.47;1.30;;;;;;;;;;5031040;28;20053;-67
2023/08/20 10:12:44;;;;;;;6.72;1.63;;;;;;;;;;5029785;28;20049;-68
2023/08/20 10:15:12;;;;;;;5.60;1.42;;;;;;;;;;5032556;28;20045;-67
2023/08/20 10:17:41;;;;;;;11.50;1.80;;;;;;;;;;5030033;28;20485;-67
2023/08/20 10:20:11;;;;;;;6.80;1.17;;;;;;;;;;5028330;28;20045;-68
2023/08/20 10:22:38;;;;;;;6.70;1.20;;;;;;;;;;5027437;28;20061;-67
2023/08/20 10:25:07;;;;;;;4.05;1.10;;;;;;;;;;5028277;28;20056;-67
2023/08/20 10:27:35;;;;;;;8.25;1.40;;;;;;;;;;5029119;28;20413;-68
2023/08/20 10:30:03;;;;;;;4.57;1.58;;;;;;;;;;5032356;28;20053;-68
2023/08/20 10:32:46;;;;;;;8.77;1.40;;;;;;;;;;5030385;28;20045;-68
2023/08/20 10:35:16;;;;;;;5.63;1.20;;;;;;;;;;5031846;28;20131;-68
2023/08/20 10:37:58;;;;;;;7.75;1.27;;;;;;;;;;5031129;28;20046;-67
2023/08/20 10:40:40;;;;;;;7.32;1.15;;;;;;;;;;5029160;28;20064;-69
2023/08/20 10:43:08;;;;;;;6.47;1.10;;;;;;;;;;5027038;28;20060;-67
2023/08/20 10:45:44;;;;;;;5.82;1.23;;;;;;;;;;5029201;28;20041;-67
2023/08/20 10:48:13;;;;;;;6.68;1.38;;;;;;;;;;5030345;28;20057;-67
2023/08/20 10:50:42;;;;;;;5.70;1.30;;;;;;;;;;5031782;28;20045;-68
2023/08/20 10:53:09;;;;;;;5.35;1.10;;;;;;;;;;5028683;28;20501;-67
2023/08/20 10:55:36;;;;;;;4.70;1.08;;;;;;;;;;5030113;28;20080;-67
2023/08/20 10:58:06;;;;;;;4.53;1.02;;;;;;;;;;5028632;28;20057;-67
2023/08/20 11:00:34;;;;;;;6.47;1.20;;;;;;;;;;5031302;28;20061;-67
2023/08/20 11:03:01;;;;;;;6.50;1.13;;;;;;;;;;5028904;28;20052;-67
2023/08/20 11:05:28;;;;;;;7.07;1.60;;;;;;;;;;5030130;28;20053;-68
2023/08/20 11:07:57;;;;;;;5.07;1.20;;;;;;;;;;5029586;28;20064;-67
2023/08/20 11:10:25;;;;;;;8.00;1.15;;;;;;;;;;5031027;28;20046;-68
2023/08/20 11:12:53;;;;;;;6.38;1.30;;;;;;;;;;5026467;28;20049;-68
2023/08/20 11:15:21;;;;;;;7.78;1.50;;;;;;;;;;5028880;28;20041;-69
2023/08/20 11:17:49;;;;;;;5.03;1.60;;;;;;;;;;5026310;28;20053;-68
2023/08/20 11:20:16;;;;;;;5.97;1.10;;;;;;;;;;5029381;28;20045;-68
2023/08/20 11:22:44;;;;;;;6.00;1.20;;;;;;;;;;5025536;28;20520;-68
2023/08/20 11:25:14;;;;;;;6.70;1.35;;;;;;;;;;5029705;28;20125;-67
2023/08/20 11:27:44;;;;;;;6.85;1.52;;;;;;;;;;5024577;28;20087;-67
2023/08/20 11:30:13;;;;;;;4.60;1.15;;;;;;;;;;5026339;28;20041;-68
2023/08/20 11:32:40;;;;;;;4.40;1.17;;;;;;;;;;5030511;28;20447;-67
2023/08/20 11:35:09;;;;;;;6.18;1.17;;;;;;;;;;5031244;28;20534;-68
2023/08/20 11:37:36;;;;;;;6.55;1.15;;;;;;;;;;5022496;28;20409;-69
2023/08/20 11:40:03;;;;;;;4.60;1.20;;;;;;;;;;5029556;28;20484;-68
2023/08/20 11:42:32;;;;;;;4.60;1.42;;;;;;;;;;5029283;28;20053;-67
2023/08/20 11:44:59;;;;;;;6.13;1.30;;;;;;;;;;5019834;28;20373;-68
2023/08/20 11:47:26;;;;;;;3.30;0.95;;;;;;;;;;5030765;28;20057;-68
2023/08/20 11:50:04;;;;;;;5.07;1.20;;;;;;;;;;5030089;28;20068;-69
2023/08/20 11:52:32;;;;;;;4.28;1.15;;;;;;;;;;5024516;28;20049;-68
2023/08/20 11:55:00;;;;;;;4.03;1.05;;;;;;;;;;5030329;28;20049;-68
2023/08/20 11:57:27;;;;;;;5.10;1.15;;;;;;;;;;5031402;28;20046;-68
2023/08/20 11:59:55;;;;;;;3.97;1.13;;;;;;;;;;5028984;28;20524;-70
2023/08/20 12:02:26;;;;;;;6.25;1.30;;;;;;;;;;5028892;28;20045;-67
2023/08/20 12:04:53;;;;;;;3.72;1.10;;;;;;;;;;5028571;28;20061;-69
2023/08/20 12:07:21;;;;;;;3.35;1.10;;;;;;;;;;5029998;28;20053;-68
2023/08/20 12:09:48;;;;;;;6.20;1.33;;;;;;;;;;5028430;28;20045;-69
2023/08/20 12:12:16;;;;;;;4.05;1.10;;;;;;;;;;5029596;28;20041;-68
2023/08/20 12:14:43;;;;;;;5.40;1.30;;;;;;;;;;5020997;28;20548;-69
2023/08/20 12:17:12;;;;;;;5.40;1.40;;;;;;;;;;5022799;28;20068;-68
2023/08/20 12:19:39;;;;;;;4.18;1.63;;;;;;;;;;5028337;28;20052;-68
2023/08/20 12:22:08;;;;;;;4.13;1.35;;;;;;;;;;5030559;28;20509;-68
2023/08/20 12:24:35;;;;;;;4.60;1.30;;;;;;;;;;5027809;28;20054;-69
2023/08/20 12:27:03;;;;;;;5.05;1.52;;;;;;;;;;5028197;28;20068;-69
2023/08/20 12:29:30;;;;;;;3.40;1.20;;;;;;;;;;5028984;28;20049;-69
2023/08/20 12:31:58;;;;;;;4.88;1.45;;;;;;;;;;5030316;28;20049;-69
2023/08/20 12:34:29;;;;;;;5.93;1.30;;;;;;;;;;5021893;28;20488;-68
2023/08/20 12:36:56;;;;;;;4.63;1.35;;;;;;;;;;5030241;28;20042;-68
2023/08/20 12:39:23;;;;;;;4.88;1.35;;;;;;;;;;5027926;28;20045;-69
2023/08/20 12:41:50;;;;;;;8.18;1.80;;;;;;;;;;5014783;28;20050;-68
2023/08/20 12:44:18;;;;;;;4.43;1.45;;;;;;;;;;5025045;28;20060;-68
2023/08/20 12:46:45;;;;;;;4.90;1.50;;;;;;;;;;5020402;28;20045;-68
2023/08/20 12:49:12;;;;;;;3.92;1.33;;;;;;;;;;5024574;28;20089;-68
2023/08/20 12:51:41;;;;;;;3.08;1.23;;;;;;;;;;5030084;28;20045;-68
2023/08/20 12:54:08;;;;;;;4.30;1.20;;;;;;;;;;5030342;28;20050;-69
2023/08/20 12:56:35;;;;;;;5.43;1.27;;;;;;;;;;5029441;28;20052;-69
2023/08/20 12:59:03;;;;;;;5.82;1.38;;;;;;;;;;5028061;28;20053;-68
2023/08/20 13:01:30;;;;;;;4.85;1.40;;;;;;;;;;5027323;28;20115;-69
2023/08/20 13:03:58;;;;;;;5.35;1.30;;;;;;;;;;5030702;28;20057;-68
2023/08/20 13:06:25;;;;;;;4.40;1.40;;;;;;;;;;5027856;28;20045;-68
2023/08/20 13:08:54;;;;;;;3.95;1.20;;;;;;;;;;5029246;28;20614;-69
2023/08/20 13:11:23;;;;;;;5.55;1.42;;;;;;;;;;5025721;28;20060;-68
2023/08/20 13:13:50;;;;;;;6.35;1.70;;;;;;;;;;5023883;28;20539;-69
2023/08/20 13:16:20;;;;;;;4.10;1.20;;;;;;;;;;5024645;28;20054;-68
2023/08/20 13:18:47;;;;;;;9.23;1.60;;;;;;;;;;5021237;28;20135;-69
2023/08/20 13:21:15;;;;;;;4.07;1.33;;;;;;;;;;5025624;28;20056;-68
2023/08/20 13:23:42;;;;;;;6.22;1.50;;;;;;;;;;5029249;28;20049;-68
2023/08/20 13:26:10;;;;;;;5.30;1.50;;;;;;;;;;5026462;28;20041;-68
2023/08/20 13:28:38;;;;;;;6.00;1.38;;;;;;;;;;5030238;28;20053;-68
2023/08/20 13:31:05;;;;;;;8.52;1.50;;;;;;;;;;5025938;28;20052;-68
2023/08/20 13:33:32;;;;;;;11.07;1.60;;;;;;;;;;5030374;28;20060;-68
2023/08/20 13:35:59;;;;;;;6.40;1.98;;;;;;;;;;5027718;28;20045;-69
2023/08/20 13:38:27;;;;;;;6.63;1.27;;;;;;;;;;5024629;28;20051;-68
2023/08/20 13:40:55;;;;;;;6.97;1.30;;;;;;;;;;5027760;28;20054;-68
2023/08/20 13:43:24;;;;;;;7.65;1.40;;;;;;;;;;5028987;28;20128;-69
2023/08/20 13:45:51;;;;;;;5.75;1.45;;;;;;;;;;5019608;28;20049;-68
2023/08/20 13:48:18;;;;;;;5.50;1.13;;;;;;;;;;5018062;28;20046;-68
2023/08/20 13:50:46;;;;;;;4.32;1.50;;;;;;;;;;5024819;28;20052;-68
2023/08/20 13:53:13;;;;;;;6.75;2.03;;;;;;;;;;5027644;28;20053;-68
2023/08/20 13:55:40;;;;;;;5.00;1.20;;;;;;;;;;5028713;28;20069;-68
2023/08/20 13:58:08;;;;;;;6.30;1.50;;;;;;;;;;5022648;28;20456;-68
2023/08/20 14:00:36;;;;;;;2.45;0.93;;;;;;;;;;5029848;28;20088;-68
2023/08/20 14:03:04;;;;;;;5.97;1.38;;;;;;;;;;5027707;28;20136;-68
2023/08/20 14:05:31;;;;;;;4.82;1.30;;;;;;;;;;5029781;28;20061;-68
2023/08/20 14:07:58;;;;;;;4.75;1.27;;;;;;;;;;5027684;28;20496;-68
2023/08/20 14:10:25;;;;;;;3.67;1.08;;;;;;;;;;5027485;28;20053;-68
2023/08/20 14:12:52;;;;;;;5.28;1.25;;;;;;;;;;5028661;28;20437;-68
2023/08/20 14:15:20;;;;;;;3.42;1.10;;;;;;;;;;5023898;28;20129;-70
2023/08/20 14:17:48;;;;;;;8.07;1.50;;;;;;;;;;5024180;28;20053;-68
2023/08/20 14:20:16;;;;;;;4.50;1.15;;;;;;;;;;5022057;28;20079;-69
2023/08/20 14:22:43;;;;;;;4.15;1.58;;;;;;;;;;5020684;28;20065;-68
2023/08/20 14:25:10;;;;;;;6.93;1.50;;;;;;;;;;5021144;28;20511;-69
2023/08/20 14:27:38;;;;;;;5.38;1.30;;;;;;;;;;5025998;28;20174;-68
2023/08/20 14:30:07;;;;;;;7.90;1.63;;;;;;;;;;5024085;28;20493;-68
2023/08/20 14:32:35;;;;;;;6.47;1.30;;;;;;;;;;5028312;28;20055;-68
2023/08/20 14:35:04;;;;;;;5.70;1.85;;;;;;;;;;5028442;28;20059;-68
2023/08/20 14:37:31;;;;;;;4.30;1.25;;;;;;;;;;5024517;28;20042;-69
2023/08/20 14:39:58;;;;;;;7.05;1.42;;;;;;;;;;5029438;28;20053;-68
2023/08/20 14:42:26;;;;;;;4.85;1.38;;;;;;;;;;5031881;28;20382;-68
2023/08/20 14:44:53;;;;;;;6.97;1.60;;;;;;;;;;5030620;28;20053;-69